Nearby METAR Reports

METAR is the scheduled surface weather observation taken hourly at civil and military airport locations.

METAR is an acronym from the French language and roughly translates as Aviation Routine Weather Report.

 

EGPL - Benbecula Island, United Kingdom
Distance from station: WNW 41mi, 66km
Updated: 29/03/2020 22:20
Overcast
Overcast
 Wind from NNW
Wind: NNW 15 mph , 24 km/h
Temperature: 8°C
Wind Chill: 4°C
Dew Point: 5°C
Humidity: 82%
Barometer: 1047 hPa
Clouds: Overcast
Visibility: 6 miles , 10 km
Cloud details: Partly cloudy 671 m
Overcast 975 m
2020/03/29 21:20 EGPL 292120Z AUTO 33013KT 9999 SCT022/// OVC032/// 08/05 Q1047
EGPU - Tiree Island, United Kingdom
Distance from station: SSW 56mi, 90km
Updated: 29/03/2020 22:20
Mostly cloudy
Mostly cloudy
 Wind from N
Wind: N 22 mph , 35 km/h
Temperature: 7°C
Wind Chill: 3°C
Dew Point: 4°C
Humidity: 81%
Barometer: 1047 hPa
Clouds: Mostly cloudy
Visibility: 6 miles , 10 km
Cloud details: Mostly cloudy 1494 m
2020/03/29 21:20 EGPU 292120Z AUTO 35019KT 9999 BKN049/// 07/04 Q1047
 
EGEO - Oban Airport, United Kingdom
Distance from station: SE 65mi, 105km
Updated: 23/03/2020 15:20
NOT Current
Partly cloudy
Partly cloudy
 Wind from S
Wind: S 20 mph , 31 km/h
Temperature: 9°C
Wind Chill: 5°C
Dew Point: 3°C
Humidity: 66%
Barometer: 1017 hPa
Clouds: Partly cloudy
Visibility: 6 miles , 10 km
Cloud details: Partly cloudy 1067 m
2020/03/23 15:20 EGEO 231520Z 18017KT 9999 SCT035 09/03 Q1017
EGPO - Stornoway, United Kingdom
Distance from station: 0 66mi, 106km
Updated: 29/03/2020 22:20
Overcast
Overcast
 Wind from NNW
Wind: NNW 13 mph , 20 km/h
Temperature: 7°C
Wind Chill: 4°C
Dew Point: 5°C
Humidity: 87%
Barometer: 1045 hPa
Clouds: Overcast
Visibility: 6 miles , 10 km
Cloud details: Few Clouds 640 m
Partly cloudy 945 m
Overcast 1158 m
2020/03/29 21:20 EGPO 292120Z AUTO 33011KT 9999 FEW021/// SCT031/// OVC038/// 07/05 Q1045
 
EGPE - Inverness/Dalcro, United Kingdom
Distance from station: ENE 88mi, 141km
Updated: 29/03/2020 22:20
Partly cloudy
Partly cloudy
 Wind from WSW
Wind: WSW 7 mph , 11 km/h
Temperature: 6°C
Wind Chill: 4°C
Dew Point: 3°C
Humidity: 81%
Barometer: 1044 hPa
Clouds: Partly cloudy
Visibility: 6 miles , 10 km
Cloud details: Partly cloudy 975 m
2020/03/29 21:20 EGPE 292120Z 25006KT 9999 SCT032 06/03 Q1044
EGQA - Tain Range (saws, United Kingdom
Distance from station: ENE 97mi, 156km
Updated: 27/03/2020 12:50
NOT Current
Partly cloudy
Partly cloudy
 Wind from calm
Wind: Calm
Clouds: Partly cloudy
Visibility: 6 miles , 10 km
Cloud details: Partly cloudy 1219 m
2020/03/27 12:50 EGQA 271250Z 00000KT 9999 SCT040 12/// Q1033 RMK BLU
 
EGQK - Kinloss Raf, United Kingdom
Distance from station: ENE 107mi, 171km
Updated: 29/03/2020 21:50
Mostly cloudy
Mostly cloudy
 Wind from WNW
Wind: WNW 14 mph , 22 km/h
Temperature: 6°C
Wind Chill: 2°C
Dew Point: 4°C
Humidity: 87%
Barometer: 1043 hPa
Clouds: Mostly cloudy
Visibility: 6 miles , 10 km
Cloud details: Partly cloudy 732 m
Mostly cloudy 1036 m
2020/03/29 20:50 EGQK 292050Z AUTO 29012KT 9999 SCT024/// BKN034/// 06/04 Q1043
EGPI - Islay/Port Ellen, United Kingdom
Distance from station: S 110mi, 177km
Updated: 29/03/2020 22:20
Few Clouds
Few Clouds
 Wind from NNW
Wind: NNW 17 mph , 28 km/h
Temperature: 6°C
Wind Chill: 2°C
Dew Point: 2°C
Humidity: 76%
Barometer: 1046 hPa
Clouds: Few Clouds
Visibility: 6 miles , 10 km
Cloud details: Few Clouds 945 m
2020/03/29 21:20 EGPI 292120Z AUTO 33015KT 9999 FEW031/// 06/02 Q1046 RERA
 
EGQS - Lossiemouth Raf, United Kingdom
Distance from station: ENE 117mi, 188km
Updated: 29/03/2020 21:50
Overcast
Overcast
 Wind from WNW
Wind: WNW 15 mph , 24 km/h
Temperature: 7°C
Wind Chill: 3°C
Dew Point: 4°C
Humidity: 81%
Barometer: 1043 hPa
Clouds: Overcast
Visibility: 6 miles , 10 km
Cloud details: Partly cloudy 549 m
Overcast 1219 m
2020/03/29 20:50 EGQS 292050Z 30013KT 9999 SCT018 OVC040 07/04 Q1043 RMK WHT
EGPF - Glasgow Airport, United Kingdom
Distance from station: SE 121mi, 195km
Updated: 29/03/2020 22:20
Clear
Clear
 Wind from W
Wind: W 7 mph , 11 km/h
Temperature: 5°C
Wind Chill: 2°C
Dew Point: 1°C
Humidity: 76%
Barometer: 1045 hPa
Clouds: Clear
Visibility: 6 miles , 10 km
2020/03/29 21:20 EGPF 292120Z AUTO 27006KT 9999 NCD 05/01 Q1045
 
EGEC - Campbeltown, United Kingdom
Distance from station: SSE 129mi, 207km
Updated: 27/03/2020 09:50
NOT Current
Mostly cloudy
Mostly cloudy
 Wind from NNW
Wind: NNW 9 mph , 15 km/h
Temperature: 8°C
Wind Chill: 5°C
Dew Point: 7°C
Humidity: 93%
Barometer: 1029 hPa
Clouds: Mostly cloudy
Visibility: 6 miles , 10 km
Cloud details: Mostly cloudy 366 m
2020/03/27 09:50 EGEC 270950Z 34008KT 9999 BKN012 08/07 Q1029
EGPN - Dundee/Riverside, United Kingdom
Distance from station: ESE 137mi, 221km
Updated: 29/03/2020 20:50
NOT Current
Clear
Clear
 Wind from W
Wind: W 8 mph , 13 km/h
Temperature: 7°C
Wind Chill: 5°C
Dew Point: 0°C
Humidity: 61%
Barometer: 1043 hPa
Summary: Clear
Visibility: greater than 7 miles , 10 km
2020/03/29 19:50 EGPN 291950Z 28007KT CAVOK 07/00 Q1043
 
EGPK - Prestwick(Civ/Na, United Kingdom
Distance from station: SSE 139mi, 224km
Updated: 29/03/2020 22:20
Partly cloudy
Partly cloudy
 Wind from WNW
Wind: WNW 9 mph , 15 km/h
Temperature: 6°C
Wind Chill: 3°C
Dew Point: 1°C
Humidity: 71%
Barometer: 1045 hPa
Clouds: Partly cloudy
Visibility: 6 miles , 10 km
Cloud details: Partly cloudy 1280 m
2020/03/29 21:20 EGPK 292120Z 30008KT 9999 SCT042 06/01 Q1045
EGQL - Leuchars Raf, United Kingdom
Distance from station: ESE 145mi, 233km
Updated: 29/03/2020 21:50
Clear
Clear
 Wind from WNW
Wind: WNW 9 mph , 15 km/h
Temperature: 6°C
Wind Chill: 3°C
Dew Point: 0°C
Humidity: 66%
Barometer: 1043 hPa
Summary: Clear
Visibility: greater than 7 miles , 10 km
2020/03/29 20:50 EGQL 292050Z 30008KT CAVOK 06/00 Q1043 BLU
 
EGPH - Edinburgh Airpor, United Kingdom
Distance from station: SE 145mi, 234km
Updated: 29/03/2020 22:20
Clear
Clear
 Wind from W
Wind: W 6 mph , 9 km/h
Temperature: 6°C
Wind Chill: 4°C
Dew Point: 0°C
Humidity: 66%
Barometer: 1043 hPa
Summary: Clear
Visibility: greater than 7 miles , 10 km
2020/03/29 21:20 EGPH 292120Z 26005KT CAVOK 06/M00 Q1043
EGPC - Wick, United Kingdom
Distance from station: NE 146mi, 234km
Updated: 29/03/2020 22:20
Overcast
Overcast
 Wind from NNW
Wind: NNW 13 mph , 20 km/h
Temperature: 6°C
Wind Chill: 2°C
Dew Point: 5°C
Humidity: 93%
Barometer: 1041 hPa
Clouds: Overcast
Visibility: 6 miles , 10 km
Cloud details: Few Clouds 671 m
Overcast 975 m
2020/03/29 21:20 EGPC 292120Z AUTO 33011KT 9999 FEW022/// OVC032/// 06/05 Q1041

-

free counters
QR Code Twitter Scottish Weather Network UK Weather Network
Argyll House B & B

Argyll House B & B is situated in North West Skye and is the perfect base to see all that the Isle of Skye has to offer. Bookings are been taken for 2020 and 2021